This is the latest recevied weather packets stored in our database for station/object KE5OYL. If no packets are shown the sender has not sent any weather packets the latest 10 day(s).
| Time | Temp. | Humidity | Pressure | Rain* | Wind** | Luminosity | Snow |
|---|---|---|---|---|---|---|---|
| 1777569205 | 16.11° C | 94% | 1016.6 hPa | 1.78 mm | - | 106 W/m² | - |
| 1777568901 | 16.11° C | 94% | 1016.6 hPa | 1.78 mm | - | 128 W/m² | - |
| 1777568598 | 16.11° C | 94% | 1016.3 hPa | 0 mm | - | 128 W/m² | - |
| 1777568295 | 16.11° C | 94% | 1016.7 hPa | 1.27 mm | - | 123 W/m² | - |
| 1777567991 | 16.11° C | 94% | 1016.9 hPa | 1.27 mm | - | 104 W/m² | - |
| 1777567689 | 15.56° C | 94% | 1016.8 hPa | 0 mm | - | 107 W/m² | - |
| 1777567385 | 16.11° C | 93% | 1016.9 hPa | 1.78 mm | - | 124 W/m² | - |
| 1777567083 | 15.56° C | 93% | 1016.6 hPa | 1.78 mm | - | 133 W/m² | - |
| 1777566781 | 15.56° C | 94% | 1016.6 hPa | 0 mm | - | 67 W/m² | - |
| 1777566478 | 15.56° C | 94% | 1017 hPa | 0 mm | - | 48 W/m² | - |
| 1777566176 | 15.56° C | 94% | 1016.9 hPa | 0 mm | - | 61 W/m² | - |
| 1777565871 | 15.56° C | 94% | 1016.4 hPa | 0 mm | - | 111 W/m² | - |
| 1777565567 | 15.56° C | 93% | 1016.4 hPa | 0 mm | - | 106 W/m² | - |
| 1777565264 | 15.56° C | 93% | 1016.2 hPa | 0 mm | - | 71 W/m² | - |
| 1777564961 | 16.11° C | 93% | 1016.4 hPa | 0 mm | - | 53 W/m² | - |
| 1777564656 | 16.11° C | 92% | 1016.4 hPa | 0 mm | - | 75 W/m² | - |
| 1777564351 | 16.11° C | 92% | 1016.3 hPa | 0 mm | - | 142 W/m² | - |
| 1777564047 | 16.11° C | 91% | 1016.9 hPa | 0 mm | - | 61 W/m² | - |
| 1777563743 | 16.11° C | 90% | 1017 hPa | 0 mm | - | 39 W/m² | - |
| 1777563440 | 16.11° C | 90% | 1016.9 hPa | 0 mm | - | 25 W/m² | - |
| 1777563134 | 16.11° C | 90% | 1016.9 hPa | 0 mm | - | 25 W/m² | - |
| 1777562830 | 16.11° C | 89% | 1016.2 hPa | 0 mm | - | 38 W/m² | - |
| 1777562528 | 16.11° C | 89% | 1016.2 hPa | 0 mm | - | 43 W/m² | - |
| 1777562226 | 16.11° C | 89% | 1016 hPa | 0 mm | - | 50 W/m² | - |
| 1777561924 | 16.11° C | 89% | 1015.7 hPa | 0 mm | - | 47 W/m² | - |
* Rain latest hour (hover to see other rain measurements)
** Current wind speed in m/s (hover to see current wind gust speed)